Terminal Aerodrome Forecast
Issued by NWS North Platte, NE

Home | Current Version | Previous Version | Text Only | Print | Product List | Glossary On
Versions: 1 2 3 4 5 6 7 8 9 10 11 12 13 14 15
000
FTUS43 KLBF 202300
TAFLBF
TAF
KLBF 202340Z 2100/2124 VRB05KT P6SM SCT060 SCT100 SCT250
     FM210500 35013G21KT P6SM BKN100
     FM211100 35006KT P6SM SKC
     FM211500 02015G21KT P6SM SKC=

USA.gov is the U.S. government's official web portal to all federal, state and local government web resources and services.